createdAt,value
2018-12-21T00:01:36.813Z,2.53
2018-12-21T00:04:04.669Z,3.07
2018-12-21T00:06:32.179Z,2.47
2018-12-21T00:08:59.901Z,2.57
2018-12-21T00:11:27.309Z,2.43
2018-12-21T00:13:55.080Z,2.50
2018-12-21T00:16:22.843Z,2.73
2018-12-21T00:18:50.515Z,2.90
2018-12-21T00:21:21.984Z,3.00
2018-12-21T00:23:47.928Z,2.70
2018-12-21T00:26:15.845Z,2.50
2018-12-21T00:28:43.553Z,2.50
2018-12-21T00:31:17.921Z,3.03
2018-12-21T00:33:57.248Z,2.80
2018-12-21T00:36:36.297Z,2.97
2018-12-21T00:39:15.368Z,3.03
2018-12-21T00:41:48.704Z,2.33
2018-12-21T00:44:49.569Z,3.03
2018-12-21T00:47:17.981Z,2.23
2018-12-21T00:49:45.749Z,3.13
2018-12-21T00:52:13.647Z,2.20
2018-12-21T00:54:41.149Z,2.37
2018-12-21T00:57:08.700Z,2.67
2018-12-21T00:59:36.192Z,2.47
2018-12-21T01:02:04.097Z,2.70
2018-12-21T01:04:31.560Z,2.27
2018-12-21T01:06:59.367Z,2.50
2018-12-21T01:09:27.207Z,2.37
2018-12-21T01:11:55.253Z,2.80
2018-12-21T01:14:22.715Z,2.33
2018-12-21T01:16:50.401Z,2.30
2018-12-21T01:19:17.823Z,2.13
2018-12-21T01:21:45.379Z,2.80
2018-12-21T01:24:13.092Z,2.20
2018-12-21T01:26:40.728Z,2.10
2018-12-21T01:29:08.449Z,2.40
2018-12-21T01:31:36.095Z,2.53
2018-12-21T01:34:03.861Z,2.63
2018-12-21T01:36:31.483Z,2.30
2018-12-21T01:38:58.965Z,2.40
2018-12-21T01:41:26.531Z,2.60
2018-12-21T01:43:54.167Z,2.37
2018-12-21T01:46:24.548Z,2.27
2018-12-21T01:48:52.040Z,2.87
2018-12-21T01:51:19.644Z,2.10
2018-12-21T01:53:47.332Z,2.40
2018-12-21T01:56:15.086Z,2.23
2018-12-21T01:58:42.740Z,2.40
2018-12-21T02:01:10.322Z,2.40
2018-12-21T02:03:37.742Z,2.57
2018-12-21T02:06:05.367Z,2.50
2018-12-21T02:08:32.757Z,2.73
2018-12-21T02:11:00.374Z,2.60
2018-12-21T02:13:27.903Z,2.67
2018-12-21T02:15:55.509Z,2.60
2018-12-21T02:18:23.247Z,2.43
2018-12-21T02:20:50.605Z,2.00
2018-12-21T02:23:18.131Z,2.40
2018-12-21T02:25:45.707Z,2.20
2018-12-21T02:28:13.199Z,2.17
2018-12-21T02:30:40.904Z,2.07
2018-12-21T02:33:08.471Z,2.43
2018-12-21T02:35:36.028Z,2.40
2018-12-21T02:38:03.691Z,2.07
2018-12-21T02:40:31.279Z,2.33
2018-12-21T02:42:58.843Z,2.70
2018-12-21T02:45:26.311Z,2.13
2018-12-21T02:47:53.815Z,2.23
2018-12-21T02:50:21.399Z,2.20
2018-12-21T02:52:49.035Z,2.37
2018-12-21T02:55:16.443Z,2.30
2018-12-21T02:57:43.961Z,2.13
2018-12-21T03:00:11.697Z,2.20
2018-12-21T03:02:39.188Z,2.30
2018-12-21T03:05:06.794Z,1.93
2018-12-21T03:07:34.499Z,2.27
2018-12-21T03:10:02.176Z,2.30
2018-12-21T03:12:29.861Z,1.87
2018-12-21T03:14:57.308Z,2.07
2018-12-21T03:17:24.763Z,1.93
2018-12-21T03:19:52.335Z,2.40
2018-12-21T03:22:19.929Z,2.10
2018-12-21T03:24:47.371Z,2.07
2018-12-21T03:27:14.851Z,2.00
2018-12-21T03:29:42.515Z,2.30
2018-12-21T03:32:10.255Z,2.30
2018-12-21T03:34:37.738Z,2.53
2018-12-21T03:37:05.369Z,1.87
2018-12-21T03:39:32.850Z,1.70
2018-12-21T03:42:00.377Z,2.17
2018-12-21T03:44:27.940Z,2.27
2018-12-21T03:46:55.481Z,2.33
2018-12-21T03:49:22.954Z,2.57
2018-12-21T03:51:50.459Z,2.53
2018-12-21T03:54:18.043Z,2.20
2018-12-21T03:56:45.519Z,2.30
2018-12-21T03:59:13.249Z,2.77
2018-12-21T04:01:40.800Z,2.47
2018-12-21T04:04:08.397Z,2.17
2018-12-21T04:06:35.998Z,3.07
2018-12-21T04:09:05.966Z,2.37
2018-12-21T04:11:33.373Z,2.40
2018-12-21T04:14:00.903Z,2.10
2018-12-21T04:16:28.284Z,2.00
2018-12-21T04:18:56.018Z,1.63
2018-12-21T04:21:23.597Z,2.50
2018-12-21T04:23:51.071Z,2.00
2018-12-21T04:26:18.635Z,2.37
2018-12-21T04:28:46.212Z,2.43
2018-12-21T04:31:13.840Z,2.30
2018-12-21T04:33:44.270Z,2.20
2018-12-21T04:36:11.956Z,2.27
2018-12-21T04:38:39.429Z,2.23
2018-12-21T04:41:06.883Z,2.30
2018-12-21T04:43:34.361Z,2.17
2018-12-21T04:46:01.899Z,2.03
2018-12-21T04:48:29.520Z,2.33
2018-12-21T04:50:56.967Z,2.40
2018-12-21T04:53:24.495Z,2.37
2018-12-21T04:55:52.130Z,2.70
2018-12-21T04:58:19.617Z,2.60
2018-12-21T05:00:47.193Z,2.33
2018-12-21T05:03:14.739Z,2.50
2018-12-21T05:05:42.364Z,2.10
2018-12-21T05:08:09.853Z,2.80
2018-12-21T05:10:37.223Z,2.50
2018-12-21T05:13:04.871Z,2.37
2018-12-21T05:15:32.332Z,2.70
2018-12-21T05:17:59.983Z,2.80
2018-12-21T05:20:27.439Z,2.00
2018-12-21T05:22:55.073Z,2.70
2018-12-21T05:25:22.546Z,2.70
2018-12-21T05:27:50.123Z,2.53
2018-12-21T05:30:17.746Z,2.07
2018-12-21T05:32:45.246Z,2.10
2018-12-21T05:35:12.768Z,2.20
2018-12-21T05:37:40.724Z,3.27
2018-12-21T05:40:08.302Z,2.40
2018-12-21T05:42:36.036Z,2.40
2018-12-21T05:45:04.388Z,2.40
2018-12-21T05:47:32.236Z,2.40
2018-12-21T05:49:59.876Z,2.53
2018-12-21T05:52:27.254Z,2.40
2018-12-21T05:54:54.896Z,2.80
2018-12-21T05:57:22.639Z,2.07
2018-12-21T05:59:50.104Z,2.00
2018-12-21T06:02:17.672Z,2.23
2018-12-21T06:04:45.391Z,2.33
2018-12-21T06:07:12.993Z,2.00
2018-12-21T06:09:40.591Z,2.70
2018-12-21T06:12:08.174Z,2.17
2018-12-21T06:14:35.527Z,2.17
2018-12-21T06:17:03.076Z,2.40
2018-12-21T06:19:30.671Z,1.90
2018-12-21T06:21:58.111Z,2.17
2018-12-21T06:24:25.659Z,2.60
2018-12-21T06:26:53.008Z,2.40
2018-12-21T06:29:20.632Z,2.30
2018-12-21T06:31:48.283Z,2.10
2018-12-21T06:34:15.890Z,2.00
2018-12-21T06:36:43.410Z,2.23
2018-12-21T06:39:10.918Z,2.47
2018-12-21T06:41:38.650Z,2.73
2018-12-21T06:44:06.228Z,2.93
2018-12-21T06:46:33.719Z,2.30
2018-12-21T06:49:01.288Z,3.10
2018-12-21T06:51:28.868Z,2.53
2018-12-21T06:53:56.348Z,2.90
2018-12-21T06:56:24.201Z,2.60
2018-12-21T06:58:51.656Z,2.80
2018-12-21T07:01:19.367Z,2.60
2018-12-21T07:03:46.732Z,2.63
2018-12-21T07:06:14.341Z,2.30
2018-12-21T07:08:41.791Z,2.40
2018-12-21T07:11:09.332Z,2.50
2018-12-21T07:13:36.983Z,1.93
2018-12-21T07:16:04.537Z,2.30
2018-12-21T07:18:32.157Z,2.10
2018-12-21T07:20:59.463Z,2.40
2018-12-21T07:23:27.600Z,2.73
2018-12-21T07:25:55.371Z,2.70
2018-12-21T07:28:23.023Z,1.90
2018-12-21T07:30:50.577Z,2.30
2018-12-21T07:33:18.159Z,2.20
2018-12-21T07:35:45.804Z,2.33
2018-12-21T07:38:13.287Z,2.60
2018-12-21T07:40:40.987Z,2.57
2018-12-21T07:43:08.483Z,2.47
2018-12-21T07:45:36.086Z,3.10
2018-12-21T07:48:03.645Z,2.17
2018-12-21T07:50:31.289Z,2.47
2018-12-21T07:52:58.932Z,2.30
2018-12-21T07:55:26.429Z,1.73
2018-12-21T07:57:54.043Z,2.27
2018-12-21T08:00:21.777Z,2.10
2018-12-21T08:02:49.414Z,1.80
2018-12-21T08:05:16.977Z,2.03
2018-12-21T08:07:44.615Z,2.43
2018-12-21T08:10:15.327Z,2.10
2018-12-21T08:12:43.048Z,1.90
2018-12-21T08:15:10.491Z,1.97
2018-12-21T08:17:38.231Z,1.80
2018-12-21T08:20:07.215Z,1.93
2018-12-21T08:22:34.650Z,1.80
2018-12-21T08:25:02.277Z,1.73
2018-12-21T08:27:29.803Z,1.70
2018-12-21T08:29:57.531Z,1.90
2018-12-21T08:32:24.929Z,2.10
2018-12-21T08:34:52.486Z,2.20
2018-12-21T08:37:19.823Z,2.10
2018-12-21T08:39:47.287Z,1.70
2018-12-21T08:42:14.704Z,2.73
2018-12-21T08:44:42.233Z,1.93
2018-12-21T08:47:09.894Z,2.10
2018-12-21T08:49:37.413Z,1.63
2018-12-21T08:52:04.906Z,2.10
2018-12-21T08:59:31.274Z,2.17
2018-12-21T09:01:58.838Z,1.77
2018-12-21T09:04:32.142Z,2.07
2018-12-21T09:06:56.191Z,2.10
2018-12-21T09:09:23.916Z,2.03
2018-12-21T09:11:51.386Z,1.80
2018-12-21T09:14:18.888Z,2.20
2018-12-21T09:16:46.381Z,2.50
2018-12-21T09:19:13.741Z,2.43
2018-12-21T09:21:41.365Z,2.23
2018-12-21T09:24:08.840Z,2.20
2018-12-21T09:26:36.304Z,2.30
2018-12-21T09:29:03.960Z,2.10
2018-12-21T09:31:31.468Z,1.77
2018-12-21T09:33:59.121Z,1.80
2018-12-21T09:36:26.931Z,2.10
2018-12-21T09:38:54.542Z,2.37
2018-12-21T09:41:22.071Z,1.90
2018-12-21T09:43:49.594Z,1.80
2018-12-21T09:46:17.131Z,2.33
2018-12-21T09:48:44.635Z,2.13
2018-12-21T09:51:12.151Z,1.57
2018-12-21T09:53:40.204Z,1.90
2018-12-21T09:56:07.906Z,2.07
2018-12-21T09:58:35.504Z,1.80
2018-12-21T10:01:03.059Z,1.70
2018-12-21T10:03:30.514Z,1.87
2018-12-21T10:05:57.900Z,1.87
2018-12-21T10:08:25.367Z,2.30
2018-12-21T10:10:52.861Z,2.10
2018-12-21T10:13:20.486Z,2.40
2018-12-21T10:15:48.512Z,2.50
2018-12-21T10:18:16.067Z,2.00
2018-12-21T10:20:43.480Z,2.50
2018-12-21T10:23:11.087Z,2.33
2018-12-21T10:25:38.740Z,2.63
2018-12-21T10:28:06.317Z,2.77
2018-12-21T10:30:34.039Z,2.80
2018-12-21T10:33:01.513Z,2.10
2018-12-21T10:35:28.988Z,2.73
2018-12-21T10:37:56.463Z,2.53
2018-12-21T10:40:23.989Z,2.50
2018-12-21T10:42:51.361Z,2.33
2018-12-21T10:45:18.876Z,2.63
2018-12-21T10:47:46.376Z,2.50
2018-12-21T10:50:14.048Z,2.70
2018-12-21T10:52:41.642Z,2.30
2018-12-21T10:55:09.297Z,2.70
2018-12-21T10:57:36.986Z,1.80
2018-12-21T11:00:07.125Z,2.43
2018-12-21T11:02:34.641Z,1.57
2018-12-21T11:05:02.171Z,1.53
2018-12-21T11:07:29.653Z,1.60
2018-12-21T11:09:57.135Z,1.40
2018-12-21T11:12:24.926Z,1.30
2018-12-21T11:14:52.423Z,1.20
2018-12-21T11:17:20.056Z,1.57
2018-12-21T11:19:47.611Z,1.23
2018-12-21T11:22:15.065Z,1.33
2018-12-21T11:24:42.417Z,1.13
2018-12-21T11:27:09.886Z,1.57
2018-12-21T11:29:37.397Z,1.67
2018-12-21T11:32:04.949Z,1.40
2018-12-21T11:34:32.640Z,1.30
2018-12-21T11:37:00.031Z,1.10
2018-12-21T11:39:27.495Z,1.33
2018-12-21T11:41:55.007Z,1.20
2018-12-21T11:44:22.603Z,0.90
2018-12-21T11:46:50.110Z,0.97
2018-12-21T11:49:17.796Z,1.00
2018-12-21T11:51:45.313Z,1.20
2018-12-21T11:54:12.808Z,1.23
2018-12-21T11:56:40.429Z,0.97
2018-12-21T11:59:07.814Z,0.80
2018-12-21T12:01:35.474Z,1.27
2018-12-21T12:04:03.178Z,1.10
2018-12-21T12:06:30.728Z,1.20
2018-12-21T12:09:06.024Z,1.10
2018-12-21T12:11:27.751Z,1.10
2018-12-21T12:13:55.982Z,0.87
2018-12-21T12:16:23.535Z,1.17
2018-12-21T12:18:51.147Z,0.80
2018-12-21T12:21:18.964Z,1.20
2018-12-21T12:23:46.413Z,1.00
2018-12-21T12:26:14.056Z,0.90
2018-12-21T12:28:41.651Z,1.00
2018-12-21T12:31:09.172Z,1.20
2018-12-21T12:33:36.928Z,1.10
2018-12-21T12:36:04.300Z,1.60
2018-12-21T12:38:31.738Z,1.10
2018-12-21T12:41:06.551Z,0.70
2018-12-21T12:43:29.217Z,1.00
2018-12-21T12:45:56.758Z,0.90
2018-12-21T12:48:24.258Z,0.90
2018-12-21T12:50:51.634Z,1.10
2018-12-21T12:53:19.139Z,1.10
2018-12-21T12:55:46.828Z,1.10
2018-12-21T12:58:14.201Z,1.00
2018-12-21T13:00:41.788Z,1.20
2018-12-21T13:03:09.336Z,1.00
2018-12-21T13:05:36.768Z,1.10
2018-12-21T13:08:04.238Z,1.40
2018-12-21T13:10:31.770Z,1.17
2018-12-21T13:13:02.139Z,1.10
2018-12-21T13:15:29.875Z,1.20
2018-12-21T13:17:57.495Z,1.10
2018-12-21T13:20:24.980Z,1.30
2018-12-21T13:22:52.619Z,1.07
2018-12-21T13:25:20.439Z,1.00
2018-12-21T13:27:48.053Z,1.10
2018-12-21T13:30:15.540Z,1.30
2018-12-21T13:32:43.049Z,1.17
2018-12-21T13:35:10.665Z,1.07
2018-12-21T13:37:38.169Z,1.00
2018-12-21T13:40:09.232Z,1.00
2018-12-21T13:42:36.992Z,0.97
2018-12-21T13:45:05.664Z,0.93
2018-12-21T13:47:33.212Z,0.90
2018-12-21T13:50:00.876Z,0.70
2018-12-21T13:52:28.499Z,1.17
2018-12-21T13:54:56.002Z,1.03
2018-12-21T13:57:23.522Z,1.00
2018-12-21T13:59:51.124Z,1.07
2018-12-21T14:02:18.644Z,0.83
2018-12-21T14:04:46.204Z,0.97
2018-12-21T14:07:13.824Z,0.93
2018-12-21T14:09:41.398Z,1.00
2018-12-21T14:12:08.936Z,1.00
2018-12-21T14:14:36.383Z,1.30
2018-12-21T14:17:04.068Z,1.10
2018-12-21T14:19:31.508Z,1.07
2018-12-21T14:21:58.955Z,1.00
2018-12-21T14:24:26.544Z,0.80
2018-12-21T14:26:53.920Z,1.07
2018-12-21T14:29:21.364Z,0.70
2018-12-21T14:31:48.924Z,0.87
2018-12-21T14:34:16.384Z,0.97
2018-12-21T14:36:43.855Z,1.00
2018-12-21T14:39:11.328Z,1.40
2018-12-21T14:41:38.827Z,1.10
2018-12-21T14:44:06.189Z,0.87
2018-12-21T14:46:33.683Z,0.90
2018-12-21T14:49:01.115Z,1.03
2018-12-21T14:51:28.603Z,1.00
2018-12-21T14:53:56.285Z,0.87
2018-12-21T14:56:23.971Z,1.17
2018-12-21T14:58:51.665Z,1.00
2018-12-21T15:01:19.177Z,1.07
2018-12-21T15:03:46.506Z,1.00
2018-12-21T15:06:13.899Z,0.97
2018-12-21T15:08:41.859Z,1.00
2018-12-21T15:11:09.599Z,0.80
2018-12-21T15:13:40.026Z,1.00
2018-12-21T15:16:07.632Z,0.90
2018-12-21T15:18:35.180Z,1.00
2018-12-21T15:21:02.694Z,0.97
2018-12-21T15:23:30.272Z,1.03
2018-12-21T15:25:57.742Z,0.87
2018-12-21T15:28:25.316Z,0.80
2018-12-21T15:30:53.010Z,0.90
2018-12-21T15:33:20.600Z,0.80
2018-12-21T15:35:48.111Z,0.90
2018-12-21T15:38:18.560Z,0.97
2018-12-21T15:40:46.251Z,0.97
2018-12-21T15:43:14.046Z,0.83
2018-12-21T15:45:41.565Z,0.90
2018-12-21T15:48:09.018Z,1.10
2018-12-21T15:50:36.693Z,1.00
2018-12-21T15:53:04.209Z,1.00
2018-12-21T15:55:31.580Z,1.10
2018-12-21T15:57:59.117Z,0.80
2018-12-21T16:00:26.921Z,0.90
2018-12-21T16:02:55.917Z,1.40
2018-12-21T16:05:23.465Z,1.30
2018-12-21T16:07:50.987Z,1.00
2018-12-21T16:10:18.518Z,1.00
2018-12-21T16:12:46.094Z,1.10
2018-12-21T16:15:13.642Z,1.07
2018-12-21T16:17:41.056Z,0.83
2018-12-21T16:20:12.104Z,0.93
2018-12-21T16:22:42.428Z,1.33
2018-12-21T16:25:09.224Z,1.00
2018-12-21T16:27:36.790Z,0.90
2018-12-21T16:30:06.020Z,1.10
2018-12-21T16:32:33.407Z,1.00
2018-12-21T16:35:00.884Z,0.93
2018-12-21T16:37:28.498Z,1.07
2018-12-21T16:39:56.012Z,1.00
2018-12-21T16:42:23.615Z,0.90
2018-12-21T16:44:51.416Z,1.10
2018-12-21T16:47:18.940Z,1.03
2018-12-21T16:49:46.592Z,0.90
2018-12-21T16:52:14.195Z,1.37
2018-12-21T16:54:41.660Z,1.50
2018-12-21T16:57:09.156Z,1.00
2018-12-21T16:59:36.842Z,1.20
2018-12-21T17:02:04.338Z,0.87
2018-12-21T17:04:31.821Z,1.20
2018-12-21T17:06:59.452Z,1.17
2018-12-21T17:09:26.920Z,0.93
2018-12-21T17:11:54.428Z,1.20
2018-12-21T17:14:21.930Z,1.10
2018-12-21T17:16:49.411Z,1.00
2018-12-21T17:19:19.443Z,1.20
2018-12-21T17:21:46.938Z,1.17
2018-12-21T17:24:14.279Z,1.20
2018-12-21T17:26:43.300Z,1.20
2018-12-21T17:29:10.853Z,1.00
2018-12-21T17:31:38.343Z,1.03
2018-12-21T17:34:05.873Z,1.17
2018-12-21T17:36:33.481Z,1.00
2018-12-21T17:39:01.169Z,1.00
2018-12-21T17:41:28.787Z,1.03
2018-12-21T17:43:56.246Z,1.10
2018-12-21T17:46:23.755Z,1.20
2018-12-21T17:48:51.287Z,1.33
2018-12-21T17:51:18.991Z,1.30
2018-12-21T17:53:46.473Z,1.30
2018-12-21T17:56:13.987Z,1.30
2018-12-21T17:58:41.481Z,1.30
2018-12-21T18:01:08.953Z,1.10
2018-12-21T18:03:44.305Z,0.97
2018-12-21T18:06:11.892Z,1.03
2018-12-21T18:08:39.416Z,1.40
2018-12-21T18:11:07.045Z,1.87
2018-12-21T18:13:34.813Z,1.20
2018-12-21T18:16:02.370Z,1.43
2018-12-21T18:18:29.870Z,1.20
2018-12-21T18:20:57.234Z,1.20
2018-12-21T18:23:25.380Z,1.13
2018-12-21T18:25:52.921Z,1.53
2018-12-21T18:28:25.952Z,1.20
2018-12-21T18:30:58.978Z,1.20
2018-12-21T18:33:26.624Z,1.67
2018-12-21T18:35:53.989Z,1.50
2018-12-21T18:38:24.511Z,1.30
2018-12-21T18:40:52.160Z,2.00
2018-12-21T18:43:19.581Z,1.63
2018-12-21T18:45:47.176Z,1.10
2018-12-21T18:48:14.800Z,1.50
2018-12-21T18:50:42.120Z,1.10
2018-12-21T18:53:09.540Z,1.20
2018-12-21T18:55:37.162Z,1.20
2018-12-21T18:58:04.758Z,1.17
2018-12-21T19:00:32.272Z,1.30
2018-12-21T19:02:59.808Z,1.50
2018-12-21T19:05:27.330Z,1.30
2018-12-21T19:07:54.944Z,1.50
2018-12-21T19:10:22.548Z,1.40
2018-12-21T19:12:50.152Z,1.10
2018-12-21T19:15:17.708Z,1.20
2018-12-21T19:17:45.468Z,1.33
2018-12-21T19:20:13.004Z,1.30
2018-12-21T19:22:40.708Z,1.20
2018-12-21T19:25:10.153Z,1.60
2018-12-21T19:27:37.697Z,1.63
2018-12-21T19:30:07.862Z,1.60
2018-12-21T19:32:35.477Z,1.20
2018-12-21T19:35:03.163Z,1.30
2018-12-21T19:37:30.743Z,1.43
2018-12-21T19:39:59.573Z,1.20
2018-12-21T19:42:27.323Z,1.50
2018-12-21T19:44:54.815Z,1.30
2018-12-21T19:47:22.388Z,1.40
2018-12-21T19:49:49.891Z,1.40
2018-12-21T19:52:17.653Z,1.27
2018-12-21T19:54:48.431Z,1.20
2018-12-21T19:57:15.850Z,1.30
2018-12-21T19:59:43.452Z,1.30
2018-12-21T20:02:11.227Z,1.30
2018-12-21T20:04:39.712Z,1.23
2018-12-21T20:07:07.234Z,1.30
2018-12-21T20:09:34.862Z,1.20
2018-12-21T20:12:02.809Z,1.23
2018-12-21T20:14:30.389Z,1.20
2018-12-21T20:16:57.959Z,1.20
2018-12-21T20:19:25.603Z,1.40
2018-12-21T20:21:53.095Z,1.30
2018-12-21T20:24:23.364Z,1.20
2018-12-21T20:26:53.801Z,1.30
2018-12-21T20:29:21.308Z,1.93
2018-12-21T20:31:48.886Z,1.23
2018-12-21T20:34:16.424Z,1.10
2018-12-21T20:36:44.066Z,1.60
2018-12-21T20:39:15.812Z,1.60
2018-12-21T20:41:43.607Z,1.40
2018-12-21T20:44:11.196Z,1.30
2018-12-21T20:46:38.605Z,1.13
2018-12-21T20:49:06.104Z,1.77
2018-12-21T20:51:33.787Z,1.00
2018-12-21T20:54:01.292Z,1.10
2018-12-21T20:56:28.980Z,1.10
2018-12-21T20:59:00.956Z,1.10
2018-12-21T21:01:31.487Z,1.30
2018-12-21T21:03:59.097Z,1.20
2018-12-21T21:06:26.689Z,1.53
2018-12-21T21:08:54.049Z,1.20
2018-12-21T21:11:25.061Z,1.20
2018-12-21T21:13:51.105Z,1.30
2018-12-21T21:16:18.587Z,1.23
2018-12-21T21:18:46.387Z,1.20
2018-12-21T21:21:14.071Z,1.30
2018-12-21T21:23:42.057Z,1.20
2018-12-21T21:26:09.615Z,1.27
2018-12-21T21:28:37.110Z,1.20
2018-12-21T21:31:04.677Z,1.23
2018-12-21T21:33:32.239Z,1.30
2018-12-21T21:35:59.743Z,1.30
2018-12-21T21:38:27.319Z,1.40
2018-12-21T21:40:54.737Z,1.10
2018-12-21T21:43:22.322Z,1.13
2018-12-21T21:45:50.028Z,1.20
2018-12-21T21:48:17.634Z,1.23
2018-12-21T21:50:45.041Z,1.37
2018-12-21T21:53:12.669Z,1.30
2018-12-21T21:55:40.045Z,1.20
2018-12-21T21:58:07.622Z,1.17
2018-12-21T22:00:35.349Z,1.20
2018-12-21T22:03:03.009Z,0.90
2018-12-21T22:05:30.506Z,1.20
2018-12-21T22:07:58.040Z,1.10
2018-12-21T22:10:25.618Z,1.10
2018-12-21T22:12:53.242Z,1.40
2018-12-21T22:15:20.838Z,1.00
2018-12-21T22:17:48.340Z,1.10
2018-12-21T22:20:15.948Z,1.20
2018-12-21T22:22:43.468Z,1.40
2018-12-21T22:25:11.030Z,1.00
2018-12-21T22:27:38.451Z,1.30
2018-12-21T22:30:08.944Z,1.10
2018-12-21T22:32:36.374Z,1.27
2018-12-21T22:35:04.206Z,1.20
2018-12-21T22:37:31.727Z,1.20
2018-12-21T22:39:59.446Z,1.00
2018-12-21T22:42:26.910Z,1.40
2018-12-21T22:44:54.578Z,1.10
2018-12-21T22:47:22.112Z,0.90
2018-12-21T22:49:49.691Z,1.30
2018-12-21T22:52:17.395Z,1.20
2018-12-21T22:54:44.933Z,1.27
2018-12-21T22:57:12.577Z,0.90
2018-12-21T22:59:40.108Z,1.07
2018-12-21T23:02:07.689Z,1.33
2018-12-21T23:04:35.760Z,1.17
2018-12-21T23:07:03.321Z,1.10
2018-12-21T23:09:30.833Z,1.20
2018-12-21T23:11:58.297Z,1.23
2018-12-21T23:14:25.836Z,1.17
2018-12-21T23:16:53.303Z,1.00
2018-12-21T23:19:20.775Z,1.50
2018-12-21T23:21:48.271Z,1.27
2018-12-21T23:24:17.565Z,1.43
2018-12-21T23:26:45.181Z,1.00
2018-12-21T23:29:12.850Z,1.20
2018-12-21T23:31:40.443Z,1.13
2018-12-21T23:34:07.979Z,1.20
2018-12-21T23:36:35.527Z,1.10
2018-12-21T23:39:06.216Z,1.13
2018-12-21T23:41:35.709Z,1.40
2018-12-21T23:44:03.534Z,1.33
2018-12-21T23:46:31.122Z,1.40
2018-12-21T23:48:58.814Z,1.27
2018-12-21T23:51:26.396Z,1.20
2018-12-21T23:53:54.050Z,1.20
2018-12-21T23:56:21.671Z,1.70
2018-12-21T23:58:49.295Z,1.00
